sensor_id;sensor_type;location;lat;lon;timestamp;pressure;altitude;pressure_sealevel;temperature;humidity
61287;BME280;56412;53.148;8.204;2022-08-26T00:02:04;101410.34;;;26.58;46.11
61287;BME280;56412;53.148;8.204;2022-08-26T00:04:30;101403.75;;;26.54;46.33
61287;BME280;56412;53.148;8.204;2022-08-26T00:06:56;101405.94;;;26.50;46.33
61287;BME280;56412;53.148;8.204;2022-08-26T00:09:22;101404.44;;;26.48;46.50
61287;BME280;56412;53.148;8.204;2022-08-26T00:11:48;101408.44;;;26.44;46.62
61287;BME280;56412;53.148;8.204;2022-08-26T00:14:14;101410.44;;;26.42;46.55
61287;BME280;56412;53.148;8.204;2022-08-26T00:16:40;101403.00;;;26.37;46.77
61287;BME280;56412;53.148;8.204;2022-08-26T00:19:07;101401.50;;;26.35;46.92
61287;BME280;56412;53.148;8.204;2022-08-26T00:21:33;101400.88;;;26.33;46.98
61287;BME280;56412;53.148;8.204;2022-08-26T00:23:59;101403.88;;;26.29;46.91
61287;BME280;56412;53.148;8.204;2022-08-26T00:26:24;101402.41;;;26.27;47.36
61287;BME280;56412;53.148;8.204;2022-08-26T00:28:49;101395.78;;;26.23;47.04
61287;BME280;56412;53.148;8.204;2022-08-26T00:31:15;101403.94;;;26.21;47.19
61287;BME280;56412;53.148;8.204;2022-08-26T00:33:40;101397.31;;;26.17;47.26
61287;BME280;56412;53.148;8.204;2022-08-26T00:36:06;101390.50;;;26.15;47.43
61287;BME280;56412;53.148;8.204;2022-08-26T00:38:32;101390.84;;;26.12;47.52
61287;BME280;56412;53.148;8.204;2022-08-26T00:40:59;101392.88;;;26.10;47.43
61287;BME280;56412;53.148;8.204;2022-08-26T00:43:24;101396.72;;;26.07;47.25
61287;BME280;56412;53.148;8.204;2022-08-26T00:46:00;101396.88;;;26.05;47.61
61287;BME280;56412;53.148;8.204;2022-08-26T00:49:03;101399.72;;;26.04;47.56
61287;BME280;56412;53.148;8.204;2022-08-26T00:51:34;101398.38;;;26.00;47.74
61287;BME280;56412;53.148;8.204;2022-08-26T00:54:06;101393.41;;;25.97;48.05
61287;BME280;56412;53.148;8.204;2022-08-26T00:56:42;101393.78;;;25.94;47.84
61287;BME280;56412;53.148;8.204;2022-08-26T00:59:12;101385.00;;;25.93;47.86
61287;BME280;56412;53.148;8.204;2022-08-26T01:01:41;101388.81;;;25.91;47.90
61287;BME280;56412;53.148;8.204;2022-08-26T01:04:08;101393.47;;;25.89;47.90
61287;BME280;56412;53.148;8.204;2022-08-26T01:06:35;101386.84;;;25.85;47.89
61287;BME280;56412;53.148;8.204;2022-08-26T01:09:01;101395.13;;;25.81;48.21
61287;BME280;56412;53.148;8.204;2022-08-26T01:11:27;101387.50;;;25.78;48.13
61287;BME280;56412;53.148;8.204;2022-08-26T01:13:53;101381.53;;;25.76;48.20
61287;BME280;56412;53.148;8.204;2022-08-26T01:16:21;101391.16;;;25.77;48.35
61287;BME280;56412;53.148;8.204;2022-08-26T01:18:49;101390.34;;;25.77;48.30
61287;BME280;56412;53.148;8.204;2022-08-26T01:23:52;101386.56;;;25.71;48.42
61287;BME280;56412;53.148;8.204;2022-08-26T01:26:28;101396.50;;;25.69;48.53
61287;BME280;56412;53.148;8.204;2022-08-26T01:28:57;101393.19;;;25.67;48.60
61287;BME280;56412;53.148;8.204;2022-08-26T01:31:26;101385.75;;;25.63;48.56
61287;BME280;56412;53.148;8.204;2022-08-26T01:34:17;101392.03;;;25.61;48.71
61287;BME280;56412;53.148;8.204;2022-08-26T01:36:44;101388.75;;;25.59;48.92
61287;BME280;56412;53.148;8.204;2022-08-26T01:39:10;101396.03;;;25.57;48.87
61287;BME280;56412;53.148;8.204;2022-08-26T01:41:36;101392.09;;;25.53;49.26
61287;BME280;56412;53.148;8.204;2022-08-26T01:44:03;101395.22;;;25.57;49.12
61287;BME280;56412;53.148;8.204;2022-08-26T01:46:31;101397.34;;;25.61;48.92
61287;BME280;56412;53.148;8.204;2022-08-26T01:48:59;101401.50;;;25.64;48.90
61287;BME280;56412;53.148;8.204;2022-08-26T01:51:26;101398.69;;;25.66;48.85
61287;BME280;56412;53.148;8.204;2022-08-26T01:53:53;101395.69;;;25.69;48.71
61287;BME280;56412;53.148;8.204;2022-08-26T01:56:19;101391.34;;;25.68;48.95
61287;BME280;56412;53.148;8.204;2022-08-26T01:58:56;101392.22;;;25.68;49.01
61287;BME280;56412;53.148;8.204;2022-08-26T02:01:25;101399.97;;;25.70;49.09
61287;BME280;56412;53.148;8.204;2022-08-26T02:06:22;101389.50;;;25.76;48.80
61287;BME280;56412;53.148;8.204;2022-08-26T02:08:48;101396.00;;;25.74;48.90
61287;BME280;56412;53.148;8.204;2022-08-26T02:11:16;101395.00;;;25.75;48.94
61287;BME280;56412;53.148;8.204;2022-08-26T02:13:42;101391.53;;;25.74;48.91
61287;BME280;56412;53.148;8.204;2022-08-26T02:16:11;101390.69;;;25.74;49.23
61287;BME280;56412;53.148;8.204;2022-08-26T02:18:41;101393.69;;;25.71;49.27
61287;BME280;56412;53.148;8.204;2022-08-26T02:21:08;101392.69;;;25.72;48.92
61287;BME280;56412;53.148;8.204;2022-08-26T02:23:35;101389.84;;;25.73;48.98
61287;BME280;56412;53.148;8.204;2022-08-26T02:26:12;101386.03;;;25.76;48.93
61287;BME280;56412;53.148;8.204;2022-08-26T02:28:47;101388.53;;;25.77;48.67
61287;BME280;56412;53.148;8.204;2022-08-26T02:31:16;101389.69;;;25.75;48.92
61287;BME280;56412;53.148;8.204;2022-08-26T02:33:41;101388.19;;;25.72;49.06
61287;BME280;56412;53.148;8.204;2022-08-26T02:36:07;101388.38;;;25.71;48.99
61287;BME280;56412;53.148;8.204;2022-08-26T02:38:33;101383.59;;;25.66;49.06
61287;BME280;56412;53.148;8.204;2022-08-26T02:40:59;101378.63;;;25.63;49.46
61287;BME280;56412;53.148;8.204;2022-08-26T02:43:24;101377.59;;;25.64;49.23
61287;BME280;56412;53.148;8.204;2022-08-26T02:45:50;101380.59;;;25.61;49.27
61287;BME280;56412;53.148;8.204;2022-08-26T02:48:16;101383.44;;;25.59;49.34
61287;BME280;56412;53.148;8.204;2022-08-26T02:50:43;101371.16;;;25.58;49.12
61287;BME280;56412;53.148;8.204;2022-08-26T02:53:09;101375.66;;;25.58;49.52
61287;BME280;56412;53.148;8.204;2022-08-26T02:55:36;101377.47;;;25.57;49.62
61287;BME280;56412;53.148;8.204;2022-08-26T02:58:01;101380.47;;;25.54;49.75
61287;BME280;56412;53.148;8.204;2022-08-26T03:00:27;101376.50;;;25.50;49.96
61287;BME280;56412;53.148;8.204;2022-08-26T03:02:53;101380.16;;;25.49;49.77
61287;BME280;56412;53.148;8.204;2022-08-26T03:05:18;101379.81;;;25.52;49.95
61287;BME280;56412;53.148;8.204;2022-08-26T03:07:46;101378.81;;;25.53;49.67
61287;BME280;56412;53.148;8.204;2022-08-26T03:10:12;101381.13;;;25.56;49.76
61287;BME280;56412;53.148;8.204;2022-08-26T03:12:38;101380.47;;;25.54;49.56
61287;BME280;56412;53.148;8.204;2022-08-26T03:15:04;101370.88;;;25.53;49.81
61287;BME280;56412;53.148;8.204;2022-08-26T03:17:31;101367.22;;;25.54;49.79
61287;BME280;56412;53.148;8.204;2022-08-26T03:19:56;101369.88;;;25.54;49.87
61287;BME280;56412;53.148;8.204;2022-08-26T03:22:22;101357.09;;;25.50;49.86
61287;BME280;56412;53.148;8.204;2022-08-26T03:24:47;101370.53;;;25.48;50.09
61287;BME280;56412;53.148;8.204;2022-08-26T03:27:13;101371.72;;;25.46;50.22
61287;BME280;56412;53.148;8.204;2022-08-26T03:29:38;101374.22;;;25.39;50.33
61287;BME280;56412;53.148;8.204;2022-08-26T03:32:22;101370.91;;;25.29;50.44
61287;BME280;56412;53.148;8.204;2022-08-26T03:34:48;101366.13;;;25.24;50.39
61287;BME280;56412;53.148;8.204;2022-08-26T03:37:13;101380.06;;;25.18;50.57
61287;BME280;56412;53.148;8.204;2022-08-26T03:39:38;101371.91;;;25.11;51.04
61287;BME280;56412;53.148;8.204;2022-08-26T03:42:04;101373.59;;;25.12;50.78
61287;BME280;56412;53.148;8.204;2022-08-26T03:44:30;101378.72;;;25.06;51.02
61287;BME280;56412;53.148;8.204;2022-08-26T03:46:55;101374.41;;;25.05;50.90
61287;BME280;56412;53.148;8.204;2022-08-26T03:49:20;101377.25;;;25.03;51.02
61287;BME280;56412;53.148;8.204;2022-08-26T03:51:46;101375.56;;;25.02;51.07
61287;BME280;56412;53.148;8.204;2022-08-26T03:54:11;101378.75;;;24.98;51.16
61287;BME280;56412;53.148;8.204;2022-08-26T03:56:37;101365.81;;;24.95;51.09
61287;BME280;56412;53.148;8.204;2022-08-26T03:59:02;101377.56;;;24.84;51.29
61287;BME280;56412;53.148;8.204;2022-08-26T04:01:29;101383.06;;;24.74;51.84
61287;BME280;56412;53.148;8.204;2022-08-26T04:03:54;101375.94;;;24.75;51.81
61287;BME280;56412;53.148;8.204;2022-08-26T04:06:44;101373.09;;;24.76;51.80
61287;BME280;56412;53.148;8.204;2022-08-26T04:09:10;101386.03;;;24.63;52.23
61287;BME280;56412;53.148;8.204;2022-08-26T04:11:38;101382.03;;;24.59;52.34
61287;BME280;56412;53.148;8.204;2022-08-26T04:14:07;101380.22;;;24.59;52.31
61287;BME280;56412;53.148;8.204;2022-08-26T04:16:35;101381.53;;;24.55;52.54
61287;BME280;56412;53.148;8.204;2022-08-26T04:19:00;101365.50;;;24.57;52.56
61287;BME280;56412;53.148;8.204;2022-08-26T04:21:26;101373.44;;;24.48;52.60
61287;BME280;56412;53.148;8.204;2022-08-26T04:23:52;101372.09;;;24.44;52.62
61287;BME280;56412;53.148;8.204;2022-08-26T04:26:18;101371.94;;;24.46;52.57
61287;BME280;56412;53.148;8.204;2022-08-26T04:28:45;101378.84;;;24.39;52.89
61287;BME280;56412;53.148;8.204;2022-08-26T04:31:13;101375.72;;;24.43;52.79
61287;BME280;56412;53.148;8.204;2022-08-26T04:33:40;101373.56;;;24.47;52.52
61287;BME280;56412;53.148;8.204;2022-08-26T04:36:07;101374.75;;;24.44;52.40
61287;BME280;56412;53.148;8.204;2022-08-26T04:38:32;101382.69;;;24.44;52.69
61287;BME280;56412;53.148;8.204;2022-08-26T04:40:58;101381.66;;;24.37;52.62
61287;BME280;56412;53.148;8.204;2022-08-26T04:43:24;101384.16;;;24.39;52.70
61287;BME280;56412;53.148;8.204;2022-08-26T04:45:54;101370.56;;;24.42;52.80
61287;BME280;56412;53.148;8.204;2022-08-26T04:48:22;101384.97;;;24.39;52.96
61287;BME280;56412;53.148;8.204;2022-08-26T04:50:47;101385.94;;;24.38;52.83
61287;BME280;56412;53.148;8.204;2022-08-26T04:53:12;101382.13;;;24.41;53.01
61287;BME280;56412;53.148;8.204;2022-08-26T04:55:37;101385.78;;;24.40;53.01
61287;BME280;56412;53.148;8.204;2022-08-26T04:58:03;101382.66;;;24.36;53.08
61287;BME280;56412;53.148;8.204;2022-08-26T05:00:32;101375.84;;;24.34;53.28
61287;BME280;56412;53.148;8.204;2022-08-26T05:02:57;101372.88;;;24.37;52.90
61287;BME280;56412;53.148;8.204;2022-08-26T05:05:24;101379.19;;;24.36;52.81
61287;BME280;56412;53.148;8.204;2022-08-26T05:07:49;101378.31;;;24.35;53.29
61287;BME280;56412;53.148;8.204;2022-08-26T05:10:15;101386.13;;;24.37;53.03
61287;BME280;56412;53.148;8.204;2022-08-26T05:12:40;101370.28;;;24.45;52.87
61287;BME280;56412;53.148;8.204;2022-08-26T05:15:05;101376.25;;;24.55;52.59
61287;BME280;56412;53.148;8.204;2022-08-26T05:17:31;101375.91;;;24.66;52.76
61287;BME280;56412;53.148;8.204;2022-08-26T05:19:57;101369.97;;;24.73;52.12
61287;BME280;56412;53.148;8.204;2022-08-26T05:22:22;101375.09;;;24.82;52.33
61287;BME280;56412;53.148;8.204;2022-08-26T05:24:47;101378.22;;;24.94;51.87
61287;BME280;56412;53.148;8.204;2022-08-26T05:27:13;101372.91;;;25.10;51.83
61287;BME280;56412;53.148;8.204;2022-08-26T05:29:39;101381.03;;;25.17;51.57
61287;BME280;56412;53.148;8.204;2022-08-26T05:32:04;101380.22;;;25.17;51.65
61287;BME280;56412;53.148;8.204;2022-08-26T05:34:30;101370.63;;;25.15;51.46
61287;BME280;56412;53.148;8.204;2022-08-26T05:36:56;101379.88;;;25.20;51.74
61287;BME280;56412;53.148;8.204;2022-08-26T05:39:21;101378.56;;;25.24;51.68
61287;BME280;56412;53.148;8.204;2022-08-26T05:41:48;101385.19;;;25.28;51.65
61287;BME280;56412;53.148;8.204;2022-08-26T05:44:14;101372.88;;;25.35;51.24
61287;BME280;56412;53.148;8.204;2022-08-26T05:46:42;101372.72;;;25.45;51.11
61287;BME280;56412;53.148;8.204;2022-08-26T05:49:09;101371.69;;;25.54;51.18
61287;BME280;56412;53.148;8.204;2022-08-26T05:51:35;101379.44;;;25.64;50.76
61287;BME280;56412;53.148;8.204;2022-08-26T05:54:00;101380.09;;;25.74;50.85
61287;BME280;56412;53.148;8.204;2022-08-26T05:56:27;101379.06;;;25.83;50.59
61287;BME280;56412;53.148;8.204;2022-08-26T05:58:53;101378.03;;;25.92;50.38
61287;BME280;56412;53.148;8.204;2022-08-26T06:01:20;101375.34;;;26.00;50.40
61287;BME280;56412;53.148;8.204;2022-08-26T06:03:50;101381.44;;;26.09;50.10
61287;BME280;56412;53.148;8.204;2022-08-26T06:06:18;101384.69;;;26.19;49.91
61287;BME280;56412;53.148;8.204;2022-08-26T06:08:46;101385.34;;;26.21;50.14
61287;BME280;56412;53.148;8.204;2022-08-26T06:11:13;101380.16;;;26.28;49.80
61287;BME280;56412;53.148;8.204;2022-08-26T06:13:40;101383.75;;;26.35;49.58
61287;BME280;56412;53.148;8.204;2022-08-26T06:16:06;101388.84;;;26.45;49.50
61287;BME280;56412;53.148;8.204;2022-08-26T06:18:35;101385.81;;;26.56;49.32
61287;BME280;56412;53.148;8.204;2022-08-26T06:21:16;101385.91;;;26.63;49.49
61287;BME280;56412;53.148;8.204;2022-08-26T06:23:44;101385.00;;;26.70;49.02
61287;BME280;56412;53.148;8.204;2022-08-26T06:26:31;101392.09;;;26.78;48.82
61287;BME280;56412;53.148;8.204;2022-08-26T06:28:57;101380.59;;;26.86;48.78
61287;BME280;56412;53.148;8.204;2022-08-26T06:31:22;101389.31;;;26.94;48.25
61287;BME280;56412;53.148;8.204;2022-08-26T06:33:49;101392.72;;;27.03;48.33
61287;BME280;56412;53.148;8.204;2022-08-26T06:36:16;101386.84;;;27.08;48.41
61287;BME280;56412;53.148;8.204;2022-08-26T06:38:44;101386.94;;;27.00;48.00
61287;BME280;56412;53.148;8.204;2022-08-26T06:41:12;101390.13;;;26.26;49.76
61287;BME280;56412;53.148;8.204;2022-08-26T06:43:38;101392.09;;;26.01;50.56
61287;BME280;56412;53.148;8.204;2022-08-26T06:46:05;101396.13;;;24.92;53.19
61287;BME280;56412;53.148;8.204;2022-08-26T06:48:33;101396.88;;;25.50;51.98
61287;BME280;56412;53.148;8.204;2022-08-26T06:51:05;101412.66;;;25.35;52.11
61287;BME280;56412;53.148;8.204;2022-08-26T06:53:34;101402.94;;;25.19;52.74
61287;BME280;56412;53.148;8.204;2022-08-26T06:56:01;101410.81;;;25.44;52.04
61287;BME280;56412;53.148;8.204;2022-08-26T06:58:31;101412.38;;;25.22;52.56
61287;BME280;56412;53.148;8.204;2022-08-26T07:00:57;101412.66;;;25.35;52.36
61287;BME280;56412;53.148;8.204;2022-08-26T07:03:22;101406.63;;;25.66;51.53
61287;BME280;56412;53.148;8.204;2022-08-26T07:05:48;101416.81;;;26.01;50.71
61287;BME280;56412;53.148;8.204;2022-08-26T07:08:14;101416.00;;;25.93;50.71
61287;BME280;56412;53.148;8.204;2022-08-26T07:10:39;101416.53;;;25.88;51.05
61287;BME280;56412;53.148;8.204;2022-08-26T07:13:06;101407.88;;;26.25;50.21
61287;BME280;56412;53.148;8.204;2022-08-26T07:15:32;101415.16;;;26.32;50.35
61287;BME280;56412;53.148;8.204;2022-08-26T07:17:59;101410.72;;;26.55;49.90
61287;BME280;56412;53.148;8.204;2022-08-26T07:20:25;101413.19;;;26.25;49.98
61287;BME280;56412;53.148;8.204;2022-08-26T07:22:50;101417.09;;;26.38;50.16
61287;BME280;56412;53.148;8.204;2022-08-26T07:25:16;101416.28;;;26.68;49.08
61287;BME280;56412;53.148;8.204;2022-08-26T07:27:41;101422.78;;;26.66;49.14
61287;BME280;56412;53.148;8.204;2022-08-26T07:30:07;101424.34;;;26.98;48.21
61287;BME280;56412;53.148;8.204;2022-08-26T07:32:32;101418.94;;;26.91;48.33
61287;BME280;56412;53.148;8.204;2022-08-26T07:34:58;101423.13;;;26.86;48.77
61287;BME280;56412;53.148;8.204;2022-08-26T07:37:23;101427.91;;;27.28;48.05
61287;BME280;56412;53.148;8.204;2022-08-26T07:39:49;101430.66;;;27.20;47.79
61287;BME280;56412;53.148;8.204;2022-08-26T07:42:15;101442.03;;;27.29;47.50
61287;BME280;56412;53.148;8.204;2022-08-26T07:44:42;101438.03;;;27.48;47.10
61287;BME280;56412;53.148;8.204;2022-08-26T07:47:08;101445.47;;;27.97;46.60
61287;BME280;56412;53.148;8.204;2022-08-26T07:49:34;101452.44;;;28.13;46.46
61287;BME280;56412;53.148;8.204;2022-08-26T07:52:00;101452.59;;;28.26;45.16
61287;BME280;56412;53.148;8.204;2022-08-26T07:54:26;101447.50;;;28.10;45.97
61287;BME280;56412;53.148;8.204;2022-08-26T07:56:51;101447.38;;;27.58;46.76
61287;BME280;56412;53.148;8.204;2022-08-26T07:59:17;101449.78;;;28.13;45.92
61287;BME280;56412;53.148;8.204;2022-08-26T08:01:43;101446.66;;;28.09;45.88
61287;BME280;56412;53.148;8.204;2022-08-26T08:04:10;101448.72;;;28.28;45.50
61287;BME280;56412;53.148;8.204;2022-08-26T08:06:35;101457.84;;;28.19;45.46
61287;BME280;56412;53.148;8.204;2022-08-26T08:09:02;101458.97;;;27.95;46.11
61287;BME280;56412;53.148;8.204;2022-08-26T08:11:28;101458.28;;;28.23;45.53
61287;BME280;56412;53.148;8.204;2022-08-26T08:13:55;101458.75;;;28.12;45.96
61287;BME280;56412;53.148;8.204;2022-08-26T08:16:22;101457.75;;;28.27;44.79
61287;BME280;56412;53.148;8.204;2022-08-26T08:18:52;101455.22;;;27.90;46.08
61287;BME280;56412;53.148;8.204;2022-08-26T08:21:18;101461.28;;;28.35;45.14
61287;BME280;56412;53.148;8.204;2022-08-26T08:23:43;101466.72;;;28.41;45.08
61287;BME280;56412;53.148;8.204;2022-08-26T08:26:09;101463.88;;;28.43;45.13
61287;BME280;56412;53.148;8.204;2022-08-26T08:28:35;101459.69;;;28.76;44.54
61287;BME280;56412;53.148;8.204;2022-08-26T08:31:01;101462.38;;;28.55;44.56
61287;BME280;56412;53.148;8.204;2022-08-26T08:33:27;101455.72;;;28.66;44.87
61287;BME280;56412;53.148;8.204;2022-08-26T08:35:54;101450.16;;;29.04;44.00
61287;BME280;56412;53.148;8.204;2022-08-26T08:38:20;101454.63;;;28.60;44.44
61287;BME280;56412;53.148;8.204;2022-08-26T08:40:45;101446.13;;;28.35;44.78
61287;BME280;56412;53.148;8.204;2022-08-26T08:43:16;101451.28;;;28.94;44.35
61287;BME280;56412;53.148;8.204;2022-08-26T08:45:47;101450.13;;;29.32;43.21
61287;BME280;56412;53.148;8.204;2022-08-26T08:48:19;101442.25;;;29.45;43.51
61287;BME280;56412;53.148;8.204;2022-08-26T08:50:50;101441.72;;;29.28;43.37
61287;BME280;56412;53.148;8.204;2022-08-26T08:58:51;101442.44;;;30.26;41.63
61287;BME280;56412;53.148;8.204;2022-08-26T09:01:32;101441.13;;;30.97;40.23
61287;BME280;56412;53.148;8.204;2022-08-26T09:06:58;101433.63;;;30.32;41.73
61287;BME280;56412;53.148;8.204;2022-08-26T09:09:31;101436.59;;;31.24;40.53
61287;BME280;56412;53.148;8.204;2022-08-26T09:12:02;101435.91;;;31.62;39.20
61287;BME280;56412;53.148;8.204;2022-08-26T09:14:31;101443.81;;;31.30;38.73
61287;BME280;56412;53.148;8.204;2022-08-26T09:17:02;101439.66;;;31.34;38.75
61287;BME280;56412;53.148;8.204;2022-08-26T09:19:39;101441.09;;;29.96;41.54
61287;BME280;56412;53.148;8.204;2022-08-26T09:22:11;101436.94;;;30.35;41.51
61287;BME280;56412;53.148;8.204;2022-08-26T09:24:51;101438.69;;;30.95;40.75
61287;BME280;56412;53.148;8.204;2022-08-26T09:27:59;101446.91;;;31.14;39.25
61287;BME280;56412;53.148;8.204;2022-08-26T09:30:14;101452.66;;;30.84;40.68
61287;BME280;56412;53.148;8.204;2022-08-26T09:33:01;101453.88;;;30.75;42.24
61287;BME280;56412;53.148;8.204;2022-08-26T09:35:38;101451.19;;;30.00;45.05
61287;BME280;56412;53.148;8.204;2022-08-26T09:38:22;101462.25;;;29.97;45.27
61287;BME280;56412;53.148;8.204;2022-08-26T09:40:55;101466.97;;;29.60;46.13
61287;BME280;56412;53.148;8.204;2022-08-26T09:43:26;101454.63;;;30.42;44.82
61287;BME280;56412;53.148;8.204;2022-08-26T09:45:54;101459.97;;;30.42;44.45
61287;BME280;56412;53.148;8.204;2022-08-26T09:48:35;101458.41;;;30.74;43.33
61287;BME280;56412;53.148;8.204;2022-08-26T09:51:03;101458.94;;;30.30;44.43
61287;BME280;56412;53.148;8.204;2022-08-26T09:53:31;101454.69;;;30.01;45.30
61287;BME280;56412;53.148;8.204;2022-08-26T09:59:02;101462.66;;;29.59;46.72
61287;BME280;56412;53.148;8.204;2022-08-26T10:01:34;101464.25;;;29.26;47.71
61287;BME280;56412;53.148;8.204;2022-08-26T10:04:11;101464.66;;;29.23;47.43
61287;BME280;56412;53.148;8.204;2022-08-26T10:06:42;101458.19;;;29.38;46.81
61287;BME280;56412;53.148;8.204;2022-08-26T10:09:18;101454.97;;;29.50;46.71
61287;BME280;56412;53.148;8.204;2022-08-26T10:11:45;101454.47;;;29.05;48.26
61287;BME280;56412;53.148;8.204;2022-08-26T10:19:50;101439.19;;;30.24;44.61
61287;BME280;56412;53.148;8.204;2022-08-26T10:24:47;101436.69;;;30.23;44.90
61287;BME280;56412;53.148;8.204;2022-08-26T10:30:12;101443.94;;;30.49;44.49
61287;BME280;56412;53.148;8.204;2022-08-26T10:32:42;101441.94;;;30.77;43.64
61287;BME280;56412;53.148;8.204;2022-08-26T10:35:13;101444.03;;;30.89;43.68
61287;BME280;56412;53.148;8.204;2022-08-26T10:37:42;101449.72;;;30.46;43.93
61287;BME280;56412;53.148;8.204;2022-08-26T10:40:13;101454.31;;;31.25;42.38
61287;BME280;56412;53.148;8.204;2022-08-26T10:42:49;101444.91;;;32.32;40.81
61287;BME280;56412;53.148;8.204;2022-08-26T10:45:27;101451.31;;;31.86;41.13
61287;BME280;56412;53.148;8.204;2022-08-26T10:50:25;101446.50;;;32.47;39.95
61287;BME280;56412;53.148;8.204;2022-08-26T11:04:15;101442.75;;;32.16;40.78
61287;BME280;56412;53.148;8.204;2022-08-26T11:06:47;101437.34;;;32.61;39.35
61287;BME280;56412;53.148;8.204;2022-08-26T11:12:09;101442.97;;;31.56;41.39
61287;BME280;56412;53.148;8.204;2022-08-26T11:15:06;101436.13;;;31.67;40.96
61287;BME280;56412;53.148;8.204;2022-08-26T11:22:46;101426.09;;;31.29;41.67
61287;BME280;56412;53.148;8.204;2022-08-26T11:25:13;101427.53;;;32.10;40.43
61287;BME280;56412;53.148;8.204;2022-08-26T11:40:08;101419.59;;;32.28;40.72
61287;BME280;56412;53.148;8.204;2022-08-26T11:42:43;101410.06;;;32.01;40.81
61287;BME280;56412;53.148;8.204;2022-08-26T11:47:53;101411.03;;;33.01;38.53
61287;BME280;56412;53.148;8.204;2022-08-26T11:50:26;101415.69;;;33.13;39.16
61287;BME280;56412;53.148;8.204;2022-08-26T11:55:26;101415.13;;;32.54;40.33
61287;BME280;56412;53.148;8.204;2022-08-26T11:57:53;101418.84;;;32.78;39.58
61287;BME280;56412;53.148;8.204;2022-08-26T12:03:23;101410.56;;;33.66;37.36
61287;BME280;56412;53.148;8.204;2022-08-26T12:05:55;101414.69;;;32.57;39.38
61287;BME280;56412;53.148;8.204;2022-08-26T12:08:24;101411.78;;;32.58;39.27
61287;BME280;56412;53.148;8.204;2022-08-26T12:11:03;101413.97;;;32.37;39.52
61287;BME280;56412;53.148;8.204;2022-08-26T12:13:31;101410.41;;;32.43;39.38
61287;BME280;56412;53.148;8.204;2022-08-26T12:15:57;101409.94;;;33.09;39.18
61287;BME280;56412;53.148;8.204;2022-08-26T12:18:31;101411.28;;;34.10;36.70
61287;BME280;56412;53.148;8.204;2022-08-26T12:20:59;101410.47;;;34.10;36.47
61287;BME280;56412;53.148;8.204;2022-08-26T12:26:12;101417.00;;;33.04;38.47
61287;BME280;56412;53.148;8.204;2022-08-26T12:28:51;101414.28;;;31.63;41.17
61287;BME280;56412;53.148;8.204;2022-08-26T12:33:51;101410.91;;;30.83;42.88
61287;BME280;56412;53.148;8.204;2022-08-26T12:39:24;101415.56;;;31.54;40.57
61287;BME280;56412;53.148;8.204;2022-08-26T12:41:56;101407.72;;;30.26;44.23
61287;BME280;56412;53.148;8.204;2022-08-26T12:44:57;101400.13;;;31.56;41.93
61287;BME280;56412;53.148;8.204;2022-08-26T12:49:56;101399.88;;;31.58;41.24
61287;BME280;56412;53.148;8.204;2022-08-26T12:52:29;101393.38;;;31.14;42.34
61287;BME280;56412;53.148;8.204;2022-08-26T12:55:01;101409.38;;;30.41;43.77
61287;BME280;56412;53.148;8.204;2022-08-26T12:57:32;101404.66;;;30.36;43.83
61287;BME280;56412;53.148;8.204;2022-08-26T13:02:49;101403.84;;;30.42;43.44
61287;BME280;56412;53.148;8.204;2022-08-26T13:05:18;101397.88;;;30.47;43.49
61287;BME280;56412;53.148;8.204;2022-08-26T13:10:44;101408.50;;;29.65;45.46
61287;BME280;56412;53.148;8.204;2022-08-26T13:13:11;101407.53;;;28.67;47.26
61287;BME280;56412;53.148;8.204;2022-08-26T13:15:37;101405.91;;;27.94;49.35
61287;BME280;56412;53.148;8.204;2022-08-26T13:18:02;101411.53;;;28.20;48.86
61287;BME280;56412;53.148;8.204;2022-08-26T13:20:28;101414.28;;;28.63;47.96
61287;BME280;56412;53.148;8.204;2022-08-26T13:22:54;101410.06;;;28.33;48.79
61287;BME280;56412;53.148;8.204;2022-08-26T13:25:20;101413.16;;;27.70;49.87
61287;BME280;56412;53.148;8.204;2022-08-26T13:27:46;101415.44;;;27.44;50.50
61287;BME280;56412;53.148;8.204;2022-08-26T13:30:11;101420.69;;;27.14;51.37
61287;BME280;56412;53.148;8.204;2022-08-26T13:32:37;101414.47;;;27.07;51.51
61287;BME280;56412;53.148;8.204;2022-08-26T13:35:02;101428.72;;;27.29;50.91
61287;BME280;56412;53.148;8.204;2022-08-26T13:37:28;101440.81;;;27.84;49.86
61287;BME280;56412;53.148;8.204;2022-08-26T13:39:53;101447.66;;;27.49;50.78
61287;BME280;56412;53.148;8.204;2022-08-26T13:42:19;101460.69;;;27.58;50.19
61287;BME280;56412;53.148;8.204;2022-08-26T13:44:45;101461.50;;;26.83;52.03
61287;BME280;56412;53.148;8.204;2022-08-26T13:47:14;101467.25;;;26.72;52.33
61287;BME280;56412;53.148;8.204;2022-08-26T13:49:40;101462.78;;;26.64;52.51
61287;BME280;56412;53.148;8.204;2022-08-26T13:52:07;101465.03;;;26.13;53.95
61287;BME280;56412;53.148;8.204;2022-08-26T13:54:32;101457.63;;;26.71;52.15
61287;BME280;56412;53.148;8.204;2022-08-26T13:56:58;101456.34;;;27.05;51.32
61287;BME280;56412;53.148;8.204;2022-08-26T13:59:23;101461.84;;;27.26;50.86
61287;BME280;56412;53.148;8.204;2022-08-26T14:01:48;101456.91;;;26.77;52.51
61287;BME280;56412;53.148;8.204;2022-08-26T14:04:14;101466.25;;;27.34;50.96
61287;BME280;56412;53.148;8.204;2022-08-26T14:06:39;101460.44;;;27.53;50.83
61287;BME280;56412;53.148;8.204;2022-08-26T14:09:04;101464.84;;;28.57;47.93
61287;BME280;56412;53.148;8.204;2022-08-26T14:11:30;101467.69;;;28.55;47.92
61287;BME280;56412;53.148;8.204;2022-08-26T14:13:55;101466.38;;;28.44;47.75
61287;BME280;56412;53.148;8.204;2022-08-26T14:16:30;101459.34;;;28.80;46.97
61287;BME280;56412;53.148;8.204;2022-08-26T14:19:00;101454.00;;;28.07;48.48
61287;BME280;56412;53.148;8.204;2022-08-26T14:21:28;101449.94;;;27.14;51.03
61287;BME280;56412;53.148;8.204;2022-08-26T14:23:54;101432.38;;;27.80;49.71